sensor_id;sensor_type;location;lat;lon;timestamp;pressure;altitude;pressure_sealevel;temperature;humidity
33506;BME280;19843;51.040;13.782;2022-07-23T00:00:56;155267.69;;;21.00;100.00
33506;BME280;19843;51.040;13.782;2022-07-23T00:03:23;155293.63;;;21.10;100.00
33506;BME280;19843;51.040;13.782;2022-07-23T00:05:51;155307.97;;;21.16;100.00
33506;BME280;19843;51.040;13.782;2022-07-23T00:08:19;155318.38;;;21.20;100.00
33506;BME280;19843;51.040;13.782;2022-07-23T00:10:47;155306.66;;;21.15;100.00
33506;BME280;19843;51.040;13.782;2022-07-23T00:13:14;155289.78;;;21.08;100.00
33506;BME280;19843;51.040;13.782;2022-07-23T00:15:41;155292.38;;;21.10;100.00
33506;BME280;19843;51.040;13.782;2022-07-23T00:18:12;155241.75;;;20.90;100.00
33506;BME280;19843;51.040;13.782;2022-07-23T00:20:39;155284.56;;;21.06;100.00
33506;BME280;19843;51.040;13.782;2022-07-23T00:23:07;155274.19;;;21.02;100.00
33506;BME280;19843;51.040;13.782;2022-07-23T00:25:34;155258.63;;;20.96;100.00
33506;BME280;19843;51.040;13.782;2022-07-23T00:28:03;155276.81;;;21.03;100.00
33506;BME280;19843;51.040;13.782;2022-07-23T00:30:31;155284.56;;;21.06;100.00
33506;BME280;19843;51.040;13.782;2022-07-23T00:33:02;155227.47;;;20.84;100.00
33506;BME280;19843;51.040;13.782;2022-07-23T00:35:33;155228.78;;;20.85;100.00
33506;BME280;19843;51.040;13.782;2022-07-23T00:38:01;155271.59;;;21.01;100.00
33506;BME280;19843;51.040;13.782;2022-07-23T00:40:30;155258.63;;;20.96;100.00
33506;BME280;19843;51.040;13.782;2022-07-23T00:42:57;155227.47;;;20.84;100.00
33506;BME280;19843;51.040;13.782;2022-07-23T00:45:25;155214.50;;;20.79;100.00
33506;BME280;19843;51.040;13.782;2022-07-23T00:47:53;155147.03;;;20.53;100.00
33506;BME280;19843;51.040;13.782;2022-07-23T00:50:20;155235.28;;;20.87;100.00
33506;BME280;19843;51.040;13.782;2022-07-23T00:52:50;155195.06;;;20.72;100.00
33506;BME280;19843;51.040;13.782;2022-07-23T00:55:19;155219.69;;;20.81;100.00
33506;BME280;19843;51.040;13.782;2022-07-23T00:57:46;155250.84;;;20.93;100.00
33506;BME280;19843;51.040;13.782;2022-07-23T01:00:15;155235.28;;;20.87;100.00
33506;BME280;19843;51.040;13.782;2022-07-23T01:02:43;155209.34;;;20.77;100.00
33506;BME280;19843;51.040;13.782;2022-07-23T01:05:13;155219.69;;;20.81;100.00
33506;BME280;19843;51.040;13.782;2022-07-23T01:07:42;155262.53;;;20.98;100.00
33506;BME280;19843;51.040;13.782;2022-07-23T01:10:11;155188.53;;;20.69;100.00
33506;BME280;19843;51.040;13.782;2022-07-23T01:12:53;155157.41;;;20.57;100.00
33506;BME280;19843;51.040;13.782;2022-07-23T01:15:21;155145.72;;;20.52;100.00
33506;BME280;19843;51.040;13.782;2022-07-23T01:17:48;155149.63;;;20.54;100.00
33506;BME280;19843;51.040;13.782;2022-07-23T01:20:16;155158.69;;;20.57;100.00
33506;BME280;19843;51.040;13.782;2022-07-23T01:22:45;155178.19;;;20.65;100.00
33506;BME280;19843;51.040;13.782;2022-07-23T01:25:13;155132.75;;;20.47;100.00
33506;BME280;19843;51.040;13.782;2022-07-23T01:27:41;155141.88;;;20.51;100.00
33506;BME280;19843;51.040;13.782;2022-07-23T01:30:11;155154.84;;;20.56;100.00
33506;BME280;19843;51.040;13.782;2022-07-23T01:32:39;155147.03;;;20.53;100.00
33506;BME280;19843;51.040;13.782;2022-07-23T01:35:07;155154.84;;;20.56;100.00
33506;BME280;19843;51.040;13.782;2022-07-23T01:37:35;155152.25;;;20.55;100.00
33506;BME280;19843;51.040;13.782;2022-07-23T01:40:05;155150.94;;;20.54;100.00
33506;BME280;19843;51.040;13.782;2022-07-23T01:42:33;155147.03;;;20.53;100.00
33506;BME280;19843;51.040;13.782;2022-07-23T01:45:01;155183.38;;;20.67;100.00
33506;BME280;19843;51.040;13.782;2022-07-23T01:47:28;155128.91;;;20.46;100.00
33506;BME280;19843;51.040;13.782;2022-07-23T01:49:55;155100.38;;;20.35;100.00
33506;BME280;19843;51.040;13.782;2022-07-23T01:52:23;155108.13;;;20.38;100.00
33506;BME280;19843;51.040;13.782;2022-07-23T01:54:50;155089.91;;;20.31;100.00
33506;BME280;19843;51.040;13.782;2022-07-23T01:57:19;155084.75;;;20.29;100.00
33506;BME280;19843;51.040;13.782;2022-07-23T01:59:47;155069.16;;;20.22;100.00
33506;BME280;19843;51.040;13.782;2022-07-23T02:02:14;155012.09;;;20.00;100.00
33506;BME280;19843;51.040;13.782;2022-07-23T02:04:42;154973.19;;;19.85;100.00
33506;BME280;19843;51.040;13.782;2022-07-23T02:07:10;155001.72;;;19.96;100.00
33506;BME280;19843;51.040;13.782;2022-07-23T02:09:37;155069.16;;;20.22;100.00
33506;BME280;19843;51.040;13.782;2022-07-23T02:12:05;155082.13;;;20.28;100.00
33506;BME280;19843;51.040;13.782;2022-07-23T02:14:34;155076.94;;;20.25;100.00
33506;BME280;19843;51.040;13.782;2022-07-23T02:17:04;155056.19;;;20.17;100.00
33506;BME280;19843;51.040;13.782;2022-07-23T02:19:31;155025.06;;;20.05;100.00
33506;BME280;19843;51.040;13.782;2022-07-23T02:21:59;155048.44;;;20.14;100.00
33506;BME280;19843;51.040;13.782;2022-07-23T02:24:26;154962.84;;;19.81;100.00
33506;BME280;19843;51.040;13.782;2022-07-23T02:26:54;154874.66;;;19.47;100.00
33506;BME280;19843;51.040;13.782;2022-07-23T02:29:21;154859.03;;;19.40;100.00
33506;BME280;19843;51.040;13.782;2022-07-23T02:31:50;154878.56;;;19.48;100.00
33506;BME280;19843;51.040;13.782;2022-07-23T02:34:17;154894.13;;;19.54;100.00
33506;BME280;19843;51.040;13.782;2022-07-23T02:36:45;154879.84;;;19.49;100.00
33506;BME280;19843;51.040;13.782;2022-07-23T02:39:12;154860.34;;;19.41;100.00
33506;BME280;19843;51.040;13.782;2022-07-23T02:41:40;154879.84;;;19.49;100.00
33506;BME280;19843;51.040;13.782;2022-07-23T02:44:08;154883.75;;;19.50;100.00
33506;BME280;19843;51.040;13.782;2022-07-23T02:46:35;154934.31;;;19.70;100.00
33506;BME280;19843;51.040;13.782;2022-07-23T02:49:04;154965.44;;;19.82;100.00
33506;BME280;19843;51.040;13.782;2022-07-23T02:51:32;155004.34;;;19.97;100.00
33506;BME280;19843;51.040;13.782;2022-07-23T02:54:00;154991.38;;;19.92;100.00
33506;BME280;19843;51.040;13.782;2022-07-23T02:56:27;155003.03;;;19.97;100.00
33506;BME280;19843;51.040;13.782;2022-07-23T02:58:55;155048.44;;;20.14;100.00
33506;BME280;19843;51.040;13.782;2022-07-23T03:01:22;155032.88;;;20.08;100.00
33506;BME280;19843;51.040;13.782;2022-07-23T03:03:50;155045.84;;;20.13;100.00
33506;BME280;19843;51.040;13.782;2022-07-23T03:06:18;155006.94;;;19.98;100.00
33506;BME280;19843;51.040;13.782;2022-07-23T03:08:46;154983.56;;;19.89;100.00
33506;BME280;19843;51.040;13.782;2022-07-23T03:11:14;154991.38;;;19.92;100.00
33506;BME280;19843;51.040;13.782;2022-07-23T03:13:43;154978.41;;;19.87;100.00
33506;BME280;19843;51.040;13.782;2022-07-23T03:16:11;154971.91;;;19.85;100.00
33506;BME280;19843;51.040;13.782;2022-07-23T03:18:38;154980.97;;;19.88;100.00
33506;BME280;19843;51.040;13.782;2022-07-23T03:21:06;154993.97;;;19.93;100.00
33506;BME280;19843;51.040;13.782;2022-07-23T03:23:35;154977.09;;;19.87;100.00
33506;BME280;19843;51.040;13.782;2022-07-23T03:26:02;154979.72;;;19.88;100.00
33506;BME280;19843;51.040;13.782;2022-07-23T03:28:30;154999.13;;;19.95;100.00
33506;BME280;19843;51.040;13.782;2022-07-23T03:30:58;154992.66;;;19.93;100.00
33506;BME280;19843;51.040;13.782;2022-07-23T03:33:25;154983.56;;;19.89;100.00
33506;BME280;19843;51.040;13.782;2022-07-23T03:35:53;154993.97;;;19.93;100.00
33506;BME280;19843;51.040;13.782;2022-07-23T03:38:20;154952.47;;;19.77;100.00
33506;BME280;19843;51.040;13.782;2022-07-23T03:40:50;154983.56;;;19.89;100.00
33506;BME280;19843;51.040;13.782;2022-07-23T03:43:17;154978.41;;;19.87;100.00
33506;BME280;19843;51.040;13.782;2022-07-23T03:45:45;154978.41;;;19.87;100.00
33506;BME280;19843;51.040;13.782;2022-07-23T03:48:12;155028.97;;;20.07;100.00
33506;BME280;19843;51.040;13.782;2022-07-23T03:50:40;155038.03;;;20.10;100.00
33506;BME280;19843;51.040;13.782;2022-07-23T03:53:07;154905.78;;;19.59;100.00
33506;BME280;19843;51.040;13.782;2022-07-23T03:55:35;154874.66;;;19.47;100.00
33506;BME280;19843;51.040;13.782;2022-07-23T03:58:03;154926.56;;;19.67;100.00
33506;BME280;19843;51.040;13.782;2022-07-23T04:00:31;154988.75;;;19.91;100.00
33506;BME280;19843;51.040;13.782;2022-07-23T04:02:58;155044.53;;;20.13;100.00
33506;BME280;19843;51.040;13.782;2022-07-23T04:05:26;155022.47;;;20.04;100.00
33506;BME280;19843;51.040;13.782;2022-07-23T04:07:53;155032.88;;;20.08;100.00
33506;BME280;19843;51.040;13.782;2022-07-23T04:10:21;155066.56;;;20.21;100.00
33506;BME280;19843;51.040;13.782;2022-07-23T04:12:48;155066.56;;;20.21;100.00
33506;BME280;19843;51.040;13.782;2022-07-23T04:15:17;155108.13;;;20.38;100.00
33506;BME280;19843;51.040;13.782;2022-07-23T04:17:45;155102.91;;;20.36;100.00
33506;BME280;19843;51.040;13.782;2022-07-23T04:20:13;155053.59;;;20.16;100.00
33506;BME280;19843;51.040;13.782;2022-07-23T04:22:40;155102.91;;;20.36;100.00
33506;BME280;19843;51.040;13.782;2022-07-23T04:25:08;155078.22;;;20.26;100.00
33506;BME280;19843;51.040;13.782;2022-07-23T04:27:35;155022.47;;;20.04;100.00
33506;BME280;19843;51.040;13.782;2022-07-23T04:30:04;155048.44;;;20.14;100.00
33506;BME280;19843;51.040;13.782;2022-07-23T04:32:33;155001.72;;;19.96;100.00
33506;BME280;19843;51.040;13.782;2022-07-23T04:35:00;155053.59;;;20.16;100.00
33506;BME280;19843;51.040;13.782;2022-07-23T04:37:28;155032.88;;;20.08;100.00
33506;BME280;19843;51.040;13.782;2022-07-23T04:39:56;155048.44;;;20.14;100.00
33506;BME280;19843;51.040;13.782;2022-07-23T04:42:23;155096.44;;;20.33;100.00
33506;BME280;19843;51.040;13.782;2022-07-23T04:44:50;155074.38;;;20.24;100.00
33506;BME280;19843;51.040;13.782;2022-07-23T04:47:18;155128.91;;;20.46;100.00
33506;BME280;19843;51.040;13.782;2022-07-23T04:49:49;155097.75;;;20.34;100.00
33506;BME280;19843;51.040;13.782;2022-07-23T04:52:16;155110.72;;;20.39;100.00
33506;BME280;19843;51.040;13.782;2022-07-23T04:54:44;155141.88;;;20.51;100.00
33506;BME280;19843;51.040;13.782;2022-07-23T04:57:11;155105.50;;;20.37;100.00
33506;BME280;19843;51.040;13.782;2022-07-23T04:59:39;155140.56;;;20.50;100.00
33506;BME280;19843;51.040;13.782;2022-07-23T05:02:06;155157.41;;;20.57;100.00
33506;BME280;19843;51.040;13.782;2022-07-23T05:04:34;155148.34;;;20.53;100.00
33506;BME280;19843;51.040;13.782;2022-07-23T05:07:03;155123.69;;;20.44;100.00
33506;BME280;19843;51.040;13.782;2022-07-23T05:09:30;155100.38;;;20.35;100.00
33506;BME280;19843;51.040;13.782;2022-07-23T05:11:58;155106.81;;;20.37;100.00
33506;BME280;19843;51.040;13.782;2022-07-23T05:14:25;155126.31;;;20.45;100.00
33506;BME280;19843;51.040;13.782;2022-07-23T05:16:54;155208.03;;;20.77;100.00
33506;BME280;19843;51.040;13.782;2022-07-23T05:19:21;155219.69;;;20.81;100.00
33506;BME280;19843;51.040;13.782;2022-07-23T05:21:50;155206.72;;;20.76;100.00
33506;BME280;19843;51.040;13.782;2022-07-23T05:24:19;155259.94;;;20.97;100.00
33506;BME280;19843;51.040;13.782;2022-07-23T05:26:47;155278.09;;;21.04;100.00
33506;BME280;19843;51.040;13.782;2022-07-23T05:29:14;155296.25;;;21.11;100.00
33506;BME280;19843;51.040;13.782;2022-07-23T05:31:42;155315.78;;;21.19;100.00
33506;BME280;19843;51.040;13.782;2022-07-23T05:34:09;155313.19;;;21.18;100.00
33506;BME280;19843;51.040;13.782;2022-07-23T05:36:43;155354.72;;;21.34;100.00
33506;BME280;19843;51.040;13.782;2022-07-23T05:39:11;155414.44;;;21.57;100.00
33506;BME280;19843;51.040;13.782;2022-07-23T05:41:40;155429.97;;;21.63;100.00
33506;BME280;19843;51.040;13.782;2022-07-23T05:44:08;155401.41;;;21.52;100.00
33506;BME280;19843;51.040;13.782;2022-07-23T05:46:35;155346.91;;;21.31;100.00
33506;BME280;19843;51.040;13.782;2022-07-23T05:49:03;155285.88;;;21.07;100.00
33506;BME280;19843;51.040;13.782;2022-07-23T05:51:32;155252.13;;;20.94;100.00
33506;BME280;19843;51.040;13.782;2022-07-23T05:53:59;155258.63;;;20.96;100.00
33506;BME280;19843;51.040;13.782;2022-07-23T05:56:27;155263.81;;;20.98;100.00
33506;BME280;19843;51.040;13.782;2022-07-23T05:58:55;155274.19;;;21.02;100.00
33506;BME280;19843;51.040;13.782;2022-07-23T06:01:23;155211.88;;;20.78;100.00
33506;BME280;19843;51.040;13.782;2022-07-23T06:03:50;155176.88;;;20.64;100.00
33506;BME280;19843;51.040;13.782;2022-07-23T06:06:18;155131.47;;;20.47;100.00
33506;BME280;19843;51.040;13.782;2022-07-23T06:08:45;155127.59;;;20.45;100.00
33506;BME280;19843;51.040;13.782;2022-07-23T06:11:13;155169.13;;;20.61;100.00
33506;BME280;19843;51.040;13.782;2022-07-23T06:13:40;155123.69;;;20.44;100.00
33506;BME280;19843;51.040;13.782;2022-07-23T06:16:09;155097.75;;;20.34;100.00
33506;BME280;19843;51.040;13.782;2022-07-23T06:18:37;155030.25;;;20.07;100.00
33506;BME280;19843;51.040;13.782;2022-07-23T06:21:04;155012.09;;;20.00;100.00
33506;BME280;19843;51.040;13.782;2022-07-23T06:23:52;155057.50;;;20.18;100.00
33506;BME280;19843;51.040;13.782;2022-07-23T06:26:19;155089.91;;;20.31;100.00
33506;BME280;19843;51.040;13.782;2022-07-23T06:28:47;155049.69;;;20.15;100.00
33506;BME280;19843;51.040;13.782;2022-07-23T06:31:16;155006.94;;;19.98;100.00
33506;BME280;19843;51.040;13.782;2022-07-23T06:33:43;155014.69;;;20.01;100.00
33506;BME280;19843;51.040;13.782;2022-07-23T06:36:11;155001.72;;;19.96;100.00
33506;BME280;19843;51.040;13.782;2022-07-23T06:38:38;155035.44;;;20.09;100.00
33506;BME280;19843;51.040;13.782;2022-07-23T06:41:06;154990.06;;;19.92;100.00
33506;BME280;19843;51.040;13.782;2022-07-23T06:43:33;154986.16;;;19.90;100.00
33506;BME280;19843;51.040;13.782;2022-07-23T06:46:01;155017.31;;;20.02;100.00
33506;BME280;19843;51.040;13.782;2022-07-23T06:48:30;155045.84;;;20.13;100.00
33506;BME280;19843;51.040;13.782;2022-07-23T06:50:58;155076.94;;;20.25;100.00
33506;BME280;19843;51.040;13.782;2022-07-23T06:53:25;155078.22;;;20.26;100.00
33506;BME280;19843;51.040;13.782;2022-07-23T06:55:53;155115.94;;;20.41;100.00
33506;BME280;19843;51.040;13.782;2022-07-23T06:58:20;155156.16;;;20.56;100.00
33506;BME280;19843;51.040;13.782;2022-07-23T07:00:48;155149.63;;;20.54;100.00
33506;BME280;19843;51.040;13.782;2022-07-23T07:03:16;155152.25;;;20.55;100.00
33506;BME280;19843;51.040;13.782;2022-07-23T07:05:45;155178.19;;;20.65;100.00
33506;BME280;19843;51.040;13.782;2022-07-23T07:08:13;155132.75;;;20.47;100.00
33506;BME280;19843;51.040;13.782;2022-07-23T07:10:40;155175.56;;;20.64;100.00
33506;BME280;19843;51.040;13.782;2022-07-23T07:13:08;155215.78;;;20.80;100.00
33506;BME280;19843;51.040;13.782;2022-07-23T07:15:35;155131.47;;;20.47;100.00
33506;BME280;19843;51.040;13.782;2022-07-23T07:18:03;155175.56;;;20.64;100.00
33506;BME280;19843;51.040;13.782;2022-07-23T07:20:30;155261.22;;;20.97;100.00
33506;BME280;19843;51.040;13.782;2022-07-23T07:22:59;155315.78;;;21.19;100.00
33506;BME280;19843;51.040;13.782;2022-07-23T07:25:27;155444.25;;;21.69;100.00
33506;BME280;19843;51.040;13.782;2022-07-23T07:27:56;155565.06;;;22.16;100.00
33506;BME280;19843;51.040;13.782;2022-07-23T07:30:23;155811.94;;;23.12;100.00
33506;BME280;19843;51.040;13.782;2022-07-23T07:32:57;156073.31;;;24.14;100.00
33506;BME280;19843;51.040;13.782;2022-07-23T07:35:25;156126.66;;;24.34;100.00
33506;BME280;19843;51.040;13.782;2022-07-23T07:37:53;156217.69;;;24.70;100.00
33506;BME280;19843;51.040;13.782;2022-07-23T07:40:22;156052.53;;;24.06;100.00
33506;BME280;19843;51.040;13.782;2022-07-23T07:42:51;156120.19;;;24.32;100.00
33506;BME280;19843;51.040;13.782;2022-07-23T07:45:20;156155.28;;;24.46;100.00
33506;BME280;19843;51.040;13.782;2022-07-23T07:47:47;156031.69;;;23.97;100.00
33506;BME280;19843;51.040;13.782;2022-07-23T07:50:15;155626.13;;;22.40;100.00
33506;BME280;19843;51.040;13.782;2022-07-23T07:52:43;155739.22;;;22.84;100.00
33506;BME280;19843;51.040;13.782;2022-07-23T07:55:11;155863.94;;;23.32;100.00
33506;BME280;19843;51.040;13.782;2022-07-23T07:57:40;156003.06;;;23.86;100.00
33506;BME280;19843;51.040;13.782;2022-07-23T08:00:15;156152.66;;;24.45;100.00
33506;BME280;19843;51.040;13.782;2022-07-23T08:02:44;156261.94;;;24.87;100.00
33506;BME280;19843;51.040;13.782;2022-07-23T08:05:13;156168.28;;;24.51;100.00
33506;BME280;19843;51.040;13.782;2022-07-23T08:07:41;156224.22;;;24.72;100.00
33506;BME280;19843;51.040;13.782;2022-07-23T08:10:09;156220.31;;;24.71;100.00
33506;BME280;19843;51.040;13.782;2022-07-23T08:12:39;156191.69;;;24.60;100.00
33506;BME280;19843;51.040;13.782;2022-07-23T08:15:08;156144.88;;;24.42;100.00
33506;BME280;19843;51.040;13.782;2022-07-23T08:17:40;156094.13;;;24.22;100.00
33506;BME280;19843;51.040;13.782;2022-07-23T08:20:09;156052.53;;;24.06;100.00
33506;BME280;19843;51.040;13.782;2022-07-23T08:22:44;156212.53;;;24.68;100.00
33506;BME280;19843;51.040;13.782;2022-07-23T08:25:12;156255.47;;;24.85;100.00
33506;BME280;19843;51.040;13.782;2022-07-23T08:27:41;156436.34;;;25.55;100.00
33506;BME280;19843;51.040;13.782;2022-07-23T08:30:09;156212.53;;;24.68;100.00
33506;BME280;19843;51.040;13.782;2022-07-23T08:32:51;156256.75;;;24.85;100.00
33506;BME280;19843;51.040;13.782;2022-07-23T08:35:22;156194.28;;;24.61;100.00
33506;BME280;19843;51.040;13.782;2022-07-23T08:37:50;156225.53;;;24.73;100.00
33506;BME280;19843;51.040;13.782;2022-07-23T08:40:18;156247.63;;;24.81;100.00
33506;BME280;19843;51.040;13.782;2022-07-23T08:42:49;156399.91;;;25.41;100.00
33506;BME280;19843;51.040;13.782;2022-07-23T08:45:18;156392.13;;;25.38;100.00
33506;BME280;19843;51.040;13.782;2022-07-23T08:47:49;156501.53;;;25.80;100.00
33506;BME280;19843;51.040;13.782;2022-07-23T08:50:19;156484.59;;;25.74;100.00
33506;BME280;19843;51.040;13.782;2022-07-23T08:52:47;156337.47;;;25.16;100.00
33506;BME280;19843;51.040;13.782;2022-07-23T08:55:16;156276.31;;;24.93;100.00
33506;BME280;19843;51.040;13.782;2022-07-23T08:57:44;156423.34;;;25.50;100.00
33506;BME280;19843;51.040;13.782;2022-07-23T09:00:14;156685.13;;;26.52;100.00
33506;BME280;19843;51.040;13.782;2022-07-23T09:02:44;156523.63;;;25.89;100.00
33506;BME280;19843;51.040;13.782;2022-07-23T09:05:13;156569.22;;;26.06;100.00
33506;BME280;19843;51.040;13.782;2022-07-23T09:08:09;156407.72;;;25.44;100.00
33506;BME280;19843;51.040;13.782;2022-07-23T09:10:45;156360.88;;;25.26;100.00
33506;BME280;19843;51.040;13.782;2022-07-23T09:13:28;156317.94;;;25.09;100.00
33506;BME280;19843;51.040;13.782;2022-07-23T09:15:59;156342.66;;;25.18;100.00
33506;BME280;19843;51.040;13.782;2022-07-23T09:18:32;156304.94;;;25.04;100.00
33506;BME280;19843;51.040;13.782;2022-07-23T09:21:07;156433.75;;;25.54;100.00
33506;BME280;19843;51.040;13.782;2022-07-23T09:23:39;156445.53;;;25.58;100.00
33506;BME280;19843;51.040;13.782;2022-07-23T09:26:25;156577.00;;;26.10;100.00
33506;BME280;19843;51.040;13.782;2022-07-23T09:28:56;156613.50;;;26.24;100.00
33506;BME280;19843;51.040;13.782;2022-07-23T09:31:31;156569.22;;;26.06;100.00
33506;BME280;19843;51.040;13.782;2022-07-23T09:34:06;156618.72;;;26.26;100.00
33506;BME280;19843;51.040;13.782;2022-07-23T09:36:34;156556.16;;;26.01;100.00
33506;BME280;19843;51.040;13.782;2022-07-23T09:39:03;156583.50;;;26.12;100.00
33506;BME280;19843;51.040;13.782;2022-07-23T09:41:36;156631.75;;;26.31;100.00
33506;BME280;19843;51.040;13.782;2022-07-23T09:44:12;156509.31;;;25.83;100.00
33506;BME280;19843;51.040;13.782;2022-07-23T09:46:42;156509.31;;;25.83;100.00
33506;BME280;19843;51.040;13.782;2022-07-23T09:49:18;156360.88;;;25.26;100.00
33506;BME280;19843;51.040;13.782;2022-07-23T09:51:49;156414.25;;;25.46;100.00
33506;BME280;19843;51.040;13.782;2022-07-23T09:54:26;156454.63;;;25.62;100.00
33506;BME280;19843;51.040;13.782;2022-07-23T09:56:56;156564.00;;;26.04;100.00
33506;BME280;19843;51.040;13.782;2022-07-23T09:59:25;156657.78;;;26.41;100.00
33506;BME280;19843;51.040;13.782;2022-07-23T10:01:57;156652.56;;;26.39;100.00
33506;BME280;19843;51.040;13.782;2022-07-23T10:04:27;156780.25;;;26.88;100.00
33506;BME280;19843;51.040;13.782;2022-07-23T10:06:56;156771.13;;;26.85;100.00
33506;BME280;19843;51.040;13.782;2022-07-23T10:09:27;156930.09;;;27.47;100.00
33506;BME280;19843;51.040;13.782;2022-07-23T10:11:56;156868.88;;;27.23;100.00
33506;BME280;19843;51.040;13.782;2022-07-23T10:14:28;156665.56;;;26.44;100.00
33506;BME280;19843;51.040;13.782;2022-07-23T10:17:00;156720.28;;;26.65;100.00
33506;BME280;19843;51.040;13.782;2022-07-23T10:19:28;156664.31;;;26.43;100.00
33506;BME280;19843;51.040;13.782;2022-07-23T10:21:58;156750.25;;;26.77;100.00
33506;BME280;19843;51.040;13.782;2022-07-23T10:24:47;156765.88;;;26.83;100.00
33506;BME280;19843;51.040;13.782;2022-07-23T10:27:31;156793.28;;;26.94;100.00
33506;BME280;19843;51.040;13.782;2022-07-23T10:30:05;156721.59;;;26.66;100.00
33506;BME280;19843;51.040;13.782;2022-07-23T10:32:45;156764.56;;;26.82;100.00
33506;BME280;19843;51.040;13.782;2022-07-23T10:35:21;156821.94;;;27.05;100.00
33506;BME280;19843;51.040;13.782;2022-07-23T10:37:56;156818.03;;;27.03;100.00
33506;BME280;19843;51.040;13.782;2022-07-23T10:40:24;156782.88;;;26.89;100.00
33506;BME280;19843;51.040;13.782;2022-07-23T10:42:52;156790.69;;;26.93;100.00
33506;BME280;19843;51.040;13.782;2022-07-23T10:45:24;156842.78;;;27.13;100.00
33506;BME280;19843;51.040;13.782;2022-07-23T10:47:54;156788.06;;;26.92;100.00
33506;BME280;19843;51.040;13.782;2022-07-23T10:50:23;156892.31;;;27.32;100.00
33506;BME280;19843;51.040;13.782;2022-07-23T10:53:09;156891.00;;;27.31;100.00
33506;BME280;19843;51.040;13.782;2022-07-23T10:55:47;157048.72;;;27.93;100.00
33506;BME280;19843;51.040;13.782;2022-07-23T10:58:45;157107.44;;;28.16;100.00
33506;BME280;19843;51.040;13.782;2022-07-23T11:01:32;156973.16;;;27.63;100.00
33506;BME280;19843;51.040;13.782;2022-07-23T11:04:02;156986.19;;;27.68;100.00
33506;BME280;19843;51.040;13.782;2022-07-23T11:07:07;156991.41;;;27.70;100.00
33506;BME280;19843;51.040;13.782;2022-07-23T11:09:40;156893.63;;;27.33;100.00
33506;BME280;19843;51.040;13.782;2022-07-23T11:12:32;156954.88;;;27.56;100.00
33506;BME280;19843;51.040;13.782;2022-07-23T11:15:04;157147.88;;;28.31;100.00
33506;BME280;19843;51.040;13.782;2022-07-23T11:17:33;157173.94;;;28.41;100.00
33506;BME280;19843;51.040;13.782;2022-07-23T11:20:16;157202.63;;;28.52;100.00
33506;BME280;19843;51.040;13.782;2022-07-23T11:22:48;157061.75;;;27.98;100.00
33506;BME280;19843;51.040;13.782;2022-07-23T11:25:31;157074.78;;;28.03;100.00
33506;BME280;19843;51.040;13.782;2022-07-23T11:28:11;157202.63;;;28.52;100.00
33506;BME280;19843;51.040;13.782;2022-07-23T11:30:42;156987.50;;;27.69;100.00
33506;BME280;19843;51.040;13.782;2022-07-23T11:33:19;156900.13;;;27.35;100.00
33506;BME280;19843;51.040;13.782;2022-07-23T11:35:59;156900.13;;;27.35;100.00
33506;BME280;19843;51.040;13.782;2022-07-23T11:38:30;156851.94;;;27.16;100.00
33506;BME280;19843;51.040;13.782;2022-07-23T11:40:58;156795.91;;;26.95;100.00
33506;BME280;19843;51.040;13.782;2022-07-23T11:43:26;156872.75;;;27.24;100.00
33506;BME280;19843;51.040;13.782;2022-07-23T11:45:57;156884.47;;;27.29;100.00
33506;BME280;19843;51.040;13.782;2022-07-23T11:48:26;156840.22;;;27.12;100.00
33506;BME280;19843;51.040;13.782;2022-07-23T11:50:57;156827.19;;;27.07;100.00
33506;BME280;19843;51.040;13.782;2022-07-23T11:53:26;156767.19;;;26.83;100.00
33506;BME280;19843;51.040;13.782;2022-07-23T11:56:03;156699.47;;;26.57;100.00
33506;BME280;19843;51.040;13.782;2022-07-23T11:58:31;156683.81;;;26.51;100.00
33506;BME280;19843;51.040;13.782;2022-07-23T12:00:58;156590.03;;;26.15;100.00
33506;BME280;19843;51.040;13.782;2022-07-23T12:03:26;156372.59;;;25.30;100.00
33506;BME280;19843;51.040;13.782;2022-07-23T12:05:58;156327.03;;;25.12;100.00
33506;BME280;19843;51.040;13.782;2022-07-23T12:08:26;156363.50;;;25.27;100.00
33506;BME280;19843;51.040;13.782;2022-07-23T12:10:54;156444.25;;;25.58;100.00
33506;BME280;19843;51.040;13.782;2022-07-23T12:13:22;156439.00;;;25.56;100.00
33506;BME280;19843;51.040;13.782;2022-07-23T12:15:51;156427.25;;;25.51;100.00
33506;BME280;19843;51.040;13.782;2022-07-23T12:18:21;156369.97;;;25.29;100.00
33506;BME280;19843;51.040;13.782;2022-07-23T12:20:53;156114.97;;;24.30;100.00
33506;BME280;19843;51.040;13.782;2022-07-23T12:23:25;156116.28;;;24.30;100.00
33506;BME280;19843;51.040;13.782;2022-07-23T12:25:53;156170.91;;;24.52;100.00
33506;BME280;19843;51.040;13.782;2022-07-23T12:28:26;156082.44;;;24.17;100.00
33506;BME280;19843;51.040;13.782;2022-07-23T12:30:56;156098.03;;;24.23;100.00
33506;BME280;19843;51.040;13.782;2022-07-23T12:33:25;156105.88;;;24.26;100.00
33506;BME280;19843;51.040;13.782;2022-07-23T12:35:55;156199.50;;;24.63;100.00
33506;BME280;19843;51.040;13.782;2022-07-23T12:38:26;156259.31;;;24.86;100.00
33506;BME280;19843;51.040;13.782;2022-07-23T12:40:55;156381.69;;;25.34;100.00
33506;BME280;19843;51.040;13.782;2022-07-23T12:43:25;156340.03;;;25.17;100.00